createdAt,value
2022-10-11T00:02:16.941Z,7.72
2022-10-11T00:05:20.323Z,8.27
2022-10-11T00:08:23.970Z,6.90
2022-10-11T00:11:27.481Z,8.00
2022-10-11T00:14:30.985Z,8.07
2022-10-11T00:17:36.409Z,8.30
2022-10-11T00:20:39.594Z,6.93
2022-10-11T00:23:44.311Z,5.83
2022-10-11T00:26:47.552Z,7.72
2022-10-11T00:29:50.790Z,6.93
2022-10-11T00:32:55.385Z,6.10
2022-10-11T00:36:00.700Z,8.38
2022-10-11T00:39:05.491Z,6.43
2022-10-11T00:42:13.768Z,7.63
2022-10-11T00:46:09.339Z,6.55
2022-10-11T00:49:28.861Z,6.90
2022-10-11T00:52:38.818Z,5.97
2022-10-11T00:55:52.789Z,5.43
2022-10-11T00:58:58.995Z,6.70
2022-10-11T01:02:02.661Z,5.50
2022-10-11T01:05:28.526Z,6.20
2022-10-11T01:08:33.418Z,6.60
2022-10-11T01:11:40.459Z,6.17
2022-10-11T01:15:06.207Z,5.20
2022-10-11T01:18:19.333Z,6.28
2022-10-11T01:21:42.434Z,6.40
2022-10-11T01:25:14.448Z,5.55
2022-10-11T01:28:41.904Z,5.33
2022-10-11T01:31:56.884Z,5.18
2022-10-11T01:35:15.105Z,4.65
2022-10-11T01:38:28.510Z,5.78
2022-10-11T01:41:39.462Z,5.32
2022-10-11T01:44:48.648Z,6.67
2022-10-11T01:48:06.502Z,5.57
2022-10-11T01:51:10.890Z,5.53
2022-10-11T01:58:32.077Z,6.78
2022-10-11T02:01:53.643Z,4.13
2022-10-11T02:05:11.581Z,4.45
2022-10-11T02:08:27.157Z,4.53
2022-10-11T02:11:34.730Z,5.15
2022-10-11T02:14:44.814Z,5.30
2022-10-11T02:17:56.490Z,5.17
2022-10-11T02:21:07.016Z,5.35
2022-10-11T02:24:18.188Z,5.50
2022-10-11T02:27:27.951Z,5.65
2022-10-11T02:30:35.051Z,4.82
2022-10-11T02:33:44.939Z,6.27
2022-10-11T02:37:02.007Z,4.47
2022-10-11T02:40:16.161Z,4.03
2022-10-11T02:43:33.873Z,4.18
2022-10-11T02:46:40.677Z,4.50
2022-10-11T02:49:44.283Z,6.63
2022-10-11T02:52:48.956Z,4.82
2022-10-11T02:55:54.609Z,5.18
2022-10-11T02:58:58.103Z,4.88
2022-10-11T03:02:03.209Z,5.55
2022-10-11T03:05:07.344Z,4.30
2022-10-11T03:08:14.882Z,4.75
2022-10-11T03:11:18.190Z,3.85
2022-10-11T03:14:21.880Z,4.70
2022-10-11T03:17:36.030Z,4.10
2022-10-11T03:20:40.265Z,4.80
2022-10-11T03:23:45.080Z,5.25
2022-10-11T03:26:48.789Z,5.68
2022-10-11T03:29:52.144Z,4.28
2022-10-11T03:32:55.511Z,3.80
2022-10-11T03:35:58.996Z,5.20
2022-10-11T03:39:05.136Z,4.10
2022-10-11T03:42:08.436Z,3.78
2022-10-11T03:45:12.367Z,4.53
2022-10-11T03:48:15.549Z,5.53
2022-10-11T03:51:19.015Z,4.43
2022-10-11T03:54:23.733Z,4.10
2022-10-11T03:57:27.307Z,4.78
2022-10-11T04:00:30.805Z,3.95
2022-10-11T04:03:34.918Z,5.15
2022-10-11T04:06:38.350Z,4.03
2022-10-11T04:09:43.145Z,4.60
2022-10-11T04:12:46.521Z,4.13
2022-10-11T04:15:50.202Z,3.90
2022-10-11T04:18:53.353Z,3.83
2022-10-11T04:21:56.740Z,4.50
2022-10-11T04:25:01.394Z,4.30
2022-10-11T04:28:05.143Z,4.00
2022-10-11T04:31:08.360Z,4.53
2022-10-11T04:34:11.878Z,3.72
2022-10-11T04:37:15.199Z,5.40
2022-10-11T04:40:20.142Z,4.93
2022-10-11T04:43:23.155Z,3.40
2022-10-11T04:46:27.020Z,4.40
2022-10-11T04:49:30.058Z,3.83
2022-10-11T04:52:34.131Z,3.90
2022-10-11T04:55:38.563Z,4.15
2022-10-11T04:58:42.618Z,3.90
2022-10-11T05:01:45.981Z,3.88
2022-10-11T05:04:49.424Z,3.15
2022-10-11T05:07:52.488Z,4.00
2022-10-11T05:10:58.433Z,4.38
2022-10-11T05:14:01.680Z,4.55
2022-10-11T05:17:05.270Z,3.47
2022-10-11T05:20:09.867Z,4.18
2022-10-11T05:23:13.518Z,5.07
2022-10-11T05:26:18.981Z,3.63
2022-10-11T05:29:22.517Z,3.53
2022-10-11T05:32:28.065Z,3.70
2022-10-11T05:35:31.566Z,4.13
2022-10-11T05:38:34.926Z,3.97
2022-10-11T05:41:39.778Z,4.18
2022-10-11T05:44:42.767Z,3.30
2022-10-11T05:47:46.349Z,3.70
2022-10-11T05:50:51.686Z,5.68
2022-10-11T05:53:55.016Z,4.80
2022-10-11T05:56:59.590Z,3.10
2022-10-11T06:00:03.685Z,4.38
2022-10-11T06:03:18.120Z,3.65
2022-10-11T06:06:22.042Z,4.88
2022-10-11T06:09:25.225Z,3.53
2022-10-11T06:12:32.450Z,3.28
2022-10-11T06:15:41.103Z,3.15
2022-10-11T06:18:44.802Z,2.92
2022-10-11T06:21:48.500Z,3.58
2022-10-11T06:24:51.946Z,3.17
2022-10-11T06:27:56.602Z,3.25
2022-10-11T06:31:00.088Z,3.10
2022-10-11T06:34:03.573Z,3.72
2022-10-11T06:37:07.470Z,4.28
2022-10-11T06:40:12.098Z,4.43
2022-10-11T06:43:16.982Z,3.67
2022-10-11T06:46:23.862Z,4.63
2022-10-11T06:49:27.369Z,3.95
2022-10-11T06:52:30.561Z,10.55
2022-10-11T06:55:33.956Z,9.33
2022-10-11T06:58:38.817Z,4.47
2022-10-11T07:01:42.812Z,7.03
2022-10-11T07:04:45.875Z,7.05
2022-10-11T07:07:49.171Z,8.43
2022-10-11T07:10:52.522Z,5.30
2022-10-11T07:14:00.349Z,5.97
2022-10-11T07:17:03.916Z,8.95
2022-10-11T07:20:09.526Z,7.85
2022-10-11T07:23:12.930Z,4.65
2022-10-11T07:26:16.345Z,5.17
2022-10-11T07:29:20.874Z,10.95
2022-10-11T07:32:24.415Z,8.13
2022-10-11T07:35:27.401Z,5.55
2022-10-11T07:38:30.585Z,6.82
2022-10-11T07:41:33.732Z,5.60
2022-10-11T07:45:02.448Z,8.25
2022-10-11T07:48:06.290Z,5.75
2022-10-11T07:51:12.532Z,4.88
2022-10-11T07:54:15.650Z,6.55
2022-10-11T07:57:18.811Z,5.50
2022-10-11T08:00:23.509Z,5.22
2022-10-11T08:03:27.535Z,5.13
2022-10-11T08:06:32.644Z,6.13
2022-10-11T08:09:36.443Z,5.72
2022-10-11T08:12:39.444Z,6.07
2022-10-11T08:15:44.301Z,6.80
2022-10-11T08:18:47.396Z,6.20
2022-10-11T08:21:50.951Z,6.43
2022-10-11T08:24:54.275Z,7.72
2022-10-11T08:27:59.193Z,4.93
2022-10-11T08:31:05.436Z,5.47
2022-10-11T08:34:08.795Z,4.65
2022-10-11T08:37:11.792Z,6.85
2022-10-11T08:40:18.842Z,4.40
2022-10-11T08:43:45.293Z,4.20
2022-10-11T08:47:00.446Z,5.53
2022-10-11T08:50:07.977Z,4.90
2022-10-11T08:53:24.993Z,5.13
2022-10-11T08:56:31.270Z,7.30
2022-10-11T08:59:43.029Z,5.53
2022-10-11T09:03:08.496Z,4.25
2022-10-11T09:06:27.929Z,5.72
2022-10-11T09:09:56.843Z,6.25
2022-10-11T09:13:19.823Z,4.65
2022-10-11T09:16:42.844Z,5.47
2022-10-11T09:20:16.655Z,9.13
2022-10-11T09:23:41.965Z,4.63
2022-10-11T09:26:56.223Z,8.95
2022-10-11T09:30:04.852Z,5.57
2022-10-11T09:33:19.325Z,6.17
2022-10-11T09:36:35.673Z,6.18
2022-10-11T09:39:48.896Z,9.15
2022-10-11T09:42:51.923Z,5.47
2022-10-11T09:45:55.160Z,5.55
2022-10-11T09:49:01.926Z,4.47
2022-10-11T09:52:16.286Z,5.65
2022-10-11T09:55:39.001Z,5.80
2022-10-11T09:58:42.481Z,6.28
2022-10-11T10:01:45.733Z,4.88
2022-10-11T10:05:02.657Z,5.30
2022-10-11T10:08:25.058Z,5.55
2022-10-11T10:11:38.550Z,3.55
2022-10-11T10:14:42.834Z,6.63
2022-10-11T10:17:51.561Z,5.18
2022-10-11T10:20:59.499Z,5.10
2022-10-11T10:24:13.095Z,4.13
2022-10-11T10:27:22.395Z,4.55
2022-10-11T10:30:25.913Z,3.97
2022-10-11T10:33:35.176Z,3.97
2022-10-11T10:36:46.109Z,4.90
2022-10-11T10:39:59.640Z,4.35
2022-10-11T10:43:03.804Z,4.82
2022-10-11T10:46:23.189Z,4.80
2022-10-11T10:49:53.587Z,5.35
2022-10-11T10:53:22.486Z,4.27
2022-10-11T10:56:37.650Z,3.70
2022-10-11T11:00:02.037Z,4.60
2022-10-11T11:03:17.461Z,4.45
2022-10-11T11:06:36.928Z,4.65
2022-10-11T11:09:54.856Z,5.20
2022-10-11T11:13:20.585Z,3.88
2022-10-11T11:16:40.405Z,4.85
2022-10-11T11:20:04.333Z,5.25
2022-10-11T11:23:18.233Z,4.45
2022-10-11T11:26:35.001Z,6.43
2022-10-11T11:29:57.275Z,3.78
2022-10-11T11:33:17.058Z,5.40
2022-10-11T11:36:41.577Z,3.60
2022-10-11T11:39:50.548Z,5.82
2022-10-11T11:43:01.870Z,4.30
2022-10-11T11:46:16.435Z,5.75
2022-10-11T11:49:29.356Z,3.40
2022-10-11T11:52:40.687Z,3.50
2022-10-11T11:55:54.717Z,3.30
2022-10-11T11:59:10.804Z,6.00
2022-10-11T12:02:43.194Z,4.25
2022-10-11T12:06:22.206Z,2.50
2022-10-11T12:09:32.706Z,2.53
2022-10-11T12:12:39.397Z,5.07
2022-10-11T12:15:59.679Z,2.63
2022-10-11T12:19:18.274Z,3.63
2022-10-11T12:23:00.009Z,2.80
2022-10-11T12:26:39.141Z,4.20
2022-10-11T12:29:49.113Z,3.95
2022-10-11T12:33:04.300Z,2.63
2022-10-11T12:36:36.335Z,2.95
2022-10-11T12:39:52.735Z,3.30
2022-10-11T12:43:24.747Z,3.72
2022-10-11T12:47:02.837Z,4.03
2022-10-11T12:50:20.916Z,2.50
2022-10-11T12:54:14.690Z,3.28
2022-10-11T12:58:00.876Z,3.05
2022-10-11T13:01:27.232Z,3.65
2022-10-11T13:04:34.431Z,4.07
2022-10-11T13:07:37.768Z,6.77
2022-10-11T13:10:50.110Z,5.55
2022-10-11T13:14:01.208Z,5.00
2022-10-11T13:17:17.700Z,4.30
2022-10-11T13:20:26.611Z,5.78
2022-10-11T13:23:38.739Z,6.07
2022-10-11T13:26:46.643Z,7.97
2022-10-11T13:29:54.083Z,5.85
2022-10-11T13:32:58.858Z,5.07
2022-10-11T13:36:07.249Z,5.25
2022-10-11T13:39:31.567Z,5.40
2022-10-11T13:42:39.303Z,7.30
2022-10-11T13:45:42.888Z,4.03
2022-10-11T13:48:46.457Z,11.40
2022-10-11T13:52:01.238Z,5.25
2022-10-11T13:55:23.298Z,5.30
2022-10-11T13:58:38.761Z,6.32
2022-10-11T14:01:47.205Z,5.28
2022-10-11T14:04:51.860Z,3.92
2022-10-11T14:07:55.371Z,3.63
2022-10-11T14:11:05.131Z,4.30
2022-10-11T14:14:39.841Z,3.05
2022-10-11T14:17:46.571Z,8.50
2022-10-11T14:20:50.217Z,3.45
2022-10-11T14:23:55.338Z,3.70
2022-10-11T14:26:59.159Z,3.57
2022-10-11T14:30:24.567Z,3.08
2022-10-11T14:33:29.116Z,6.75
2022-10-11T14:36:32.784Z,5.35
2022-10-11T14:39:36.853Z,2.95
2022-10-11T14:42:40.107Z,5.23
2022-10-11T14:45:50.377Z,2.78
2022-10-11T14:48:56.859Z,2.88
2022-10-11T14:52:02.032Z,4.38
2022-10-11T14:55:09.063Z,3.70
2022-10-11T14:58:16.924Z,3.90
2022-10-11T15:01:21.449Z,3.40
2022-10-11T15:04:27.634Z,4.35
2022-10-11T15:07:31.184Z,2.95
2022-10-11T15:10:38.256Z,3.42
2022-10-11T15:13:41.528Z,4.60
2022-10-11T15:16:46.243Z,4.05
2022-10-11T15:19:50.870Z,4.38
2022-10-11T15:22:57.458Z,4.20
2022-10-11T15:26:00.615Z,6.25
2022-10-11T15:29:04.461Z,5.13
2022-10-11T15:32:09.141Z,9.95
2022-10-11T15:35:13.511Z,4.38
2022-10-11T15:38:27.145Z,11.60
2022-10-11T15:41:30.558Z,6.95
2022-10-11T15:44:35.331Z,3.13
2022-10-11T15:47:42.661Z,3.65
2022-10-11T15:50:46.854Z,4.70
2022-10-11T15:53:50.255Z,4.30
2022-10-11T15:56:53.251Z,5.15
2022-10-11T15:59:56.880Z,4.50
2022-10-11T16:03:01.374Z,3.60
2022-10-11T16:06:05.953Z,3.38
2022-10-11T16:09:09.261Z,3.28
2022-10-11T16:12:12.572Z,3.05
2022-10-11T16:15:17.304Z,6.63
2022-10-11T16:18:22.631Z,5.32
2022-10-11T16:21:25.861Z,4.25
2022-10-11T16:24:29.062Z,4.40
2022-10-11T16:27:33.005Z,4.95
2022-10-11T16:30:39.826Z,3.90
2022-10-11T16:33:46.672Z,3.75
2022-10-11T16:36:50.673Z,4.95
2022-10-11T16:39:54.090Z,3.35
2022-10-11T16:42:57.368Z,5.70
2022-10-11T16:46:00.577Z,3.90
2022-10-11T16:49:06.621Z,2.97
2022-10-11T16:52:11.476Z,6.90
2022-10-11T16:55:14.695Z,3.05
2022-10-11T16:58:18.036Z,4.90
2022-10-11T17:01:23.002Z,5.57
2022-10-11T17:04:27.947Z,3.47
2022-10-11T17:07:32.660Z,6.80
2022-10-11T17:10:40.287Z,5.65
2022-10-11T17:13:44.067Z,4.57
2022-10-11T17:16:47.204Z,4.63
2022-10-11T17:19:51.988Z,8.32
2022-10-11T17:22:56.236Z,3.22
2022-10-11T17:26:07.309Z,11.57
2022-10-11T17:29:16.157Z,4.00
2022-10-11T17:32:19.493Z,3.43
2022-10-11T17:35:24.037Z,5.05
2022-10-11T17:38:28.701Z,2.83
2022-10-11T17:41:32.454Z,3.75
2022-10-11T17:44:37.069Z,4.65
2022-10-11T17:47:40.221Z,3.23
2022-10-11T17:50:49.643Z,3.53
2022-10-11T17:53:54.723Z,4.43
2022-10-11T17:56:58.263Z,4.53
2022-10-11T18:00:02.070Z,8.32
2022-10-11T18:03:08.677Z,7.93
2022-10-11T18:06:15.046Z,5.20
2022-10-11T18:09:19.591Z,8.23
2022-10-11T18:12:26.358Z,13.45
2022-10-11T18:15:32.158Z,8.02
2022-10-11T18:18:35.523Z,6.73
2022-10-11T18:21:41.337Z,33.47
2022-10-11T18:24:44.639Z,14.02
2022-10-11T18:27:48.163Z,9.38
2022-10-11T18:30:53.168Z,9.65
2022-10-11T18:33:56.867Z,9.67
2022-10-11T18:37:01.511Z,8.85
2022-10-11T18:40:05.825Z,14.27
2022-10-11T18:43:08.910Z,12.32
2022-10-11T18:46:15.494Z,8.38
2022-10-11T18:49:18.656Z,10.13
2022-10-11T18:52:23.384Z,9.10
2022-10-11T18:55:27.229Z,8.95
2022-10-11T18:58:32.687Z,6.25
2022-10-11T19:01:39.325Z,9.27
2022-10-11T19:04:43.158Z,9.10
2022-10-11T19:07:48.751Z,10.50
2022-10-11T19:10:52.081Z,11.30
2022-10-11T19:14:01.256Z,8.10
2022-10-11T19:17:04.509Z,11.90
2022-10-11T19:20:09.057Z,7.27
2022-10-11T19:23:13.641Z,8.10
2022-10-11T19:26:20.964Z,17.60
2022-10-11T19:29:27.557Z,15.82
2022-10-11T19:32:30.701Z,11.32
2022-10-11T19:35:34.093Z,11.63
2022-10-11T19:38:41.322Z,15.07
2022-10-11T19:41:45.486Z,10.93
2022-10-11T19:44:48.633Z,11.30
2022-10-11T19:47:51.984Z,15.43
2022-10-11T19:51:03.505Z,13.60
2022-10-11T19:54:14.590Z,10.85
2022-10-11T19:57:17.981Z,12.70
2022-10-11T20:00:21.243Z,11.88
2022-10-11T20:03:24.337Z,11.82
2022-10-11T20:06:30.034Z,14.90
2022-10-11T20:09:36.647Z,8.75
2022-10-11T20:12:45.030Z,11.68
2022-10-11T20:15:48.896Z,45.25
2022-10-11T20:18:53.813Z,53.33
2022-10-11T20:21:56.931Z,51.50
2022-10-11T20:25:01.792Z,55.50
2022-10-11T20:28:05.320Z,64.43
2022-10-11T20:31:14.464Z,76.53
2022-10-11T20:34:17.838Z,68.50
2022-10-11T20:37:21.162Z,73.15
2022-10-11T20:40:25.913Z,73.20
2022-10-11T20:43:29.263Z,69.05
2022-10-11T20:46:35.398Z,68.70
2022-10-11T20:49:38.722Z,72.70
2022-10-11T20:52:41.732Z,72.70
2022-10-11T20:55:48.704Z,76.32
2022-10-11T20:58:53.918Z,55.13
2022-10-11T21:01:57.677Z,58.20
2022-10-11T21:05:01.058Z,53.70
2022-10-11T21:08:05.610Z,48.37
2022-10-11T21:11:12.547Z,47.53
2022-10-11T21:14:16.005Z,53.00
2022-10-11T21:17:19.303Z,47.83
2022-10-11T21:20:22.517Z,50.05
2022-10-11T21:23:25.771Z,46.10
2022-10-11T21:26:32.014Z,49.10
2022-10-11T21:29:35.246Z,48.47
2022-10-11T21:32:38.825Z,41.50
2022-10-11T21:35:42.160Z,40.80
2022-10-11T21:38:46.991Z,47.17
2022-10-11T21:41:51.831Z,44.00
2022-10-11T21:44:55.718Z,43.30
2022-10-11T21:47:58.786Z,41.75
2022-10-11T21:51:02.661Z,37.90
2022-10-11T21:54:06.761Z,38.47
2022-10-11T21:57:11.690Z,41.13
2022-10-11T22:00:15.590Z,39.23
2022-10-11T22:03:19.364Z,36.80
2022-10-11T22:06:22.677Z,39.20
2022-10-11T22:09:27.687Z,38.55
2022-10-11T22:12:32.606Z,38.05
2022-10-11T22:15:37.003Z,37.07
2022-10-11T22:18:41.484Z,40.70
2022-10-11T22:21:45.429Z,36.20
2022-10-11T22:24:48.506Z,39.80
2022-10-11T22:27:53.237Z,38.40
2022-10-11T22:30:56.633Z,38.37
2022-10-11T22:34:02.201Z,35.35
2022-10-11T22:37:06.116Z,40.22
2022-10-11T22:40:10.285Z,37.22
2022-10-11T22:43:14.829Z,36.13
2022-10-11T22:46:18.614Z,34.93
2022-10-11T22:49:21.764Z,33.58
2022-10-11T22:52:25.066Z,33.67
2022-10-11T22:55:28.066Z,34.03
2022-10-11T22:58:32.798Z,34.45
2022-10-11T23:01:35.976Z,35.97
2022-10-11T23:04:39.155Z,33.35
2022-10-11T23:07:42.439Z,32.90
2022-10-11T23:10:45.635Z,32.33
2022-10-11T23:13:49.966Z,30.60
2022-10-11T23:16:54.364Z,34.93
2022-10-11T23:19:57.609Z,35.85
2022-10-11T23:23:01.176Z,31.92
2022-10-11T23:26:07.264Z,33.65
2022-10-11T23:29:11.983Z,31.75
2022-10-11T23:32:15.254Z,31.20
2022-10-11T23:35:18.555Z,31.45
2022-10-11T23:38:21.531Z,29.33
2022-10-11T23:41:28.793Z,32.38
2022-10-11T23:44:33.567Z,29.10
2022-10-11T23:47:37.301Z,28.93
2022-10-11T23:50:40.749Z,28.85
2022-10-11T23:53:44.583Z,29.02
2022-10-11T23:56:47.757Z,34.95
2022-10-11T23:59:52.489Z,31.00
